sensor_id;sensor_type;location;lat;lon;timestamp;temperature;humidity
11922;DHT22;6021;51.182;3.160;2023-12-20T00:01:12;7.00;99.90
11922;DHT22;6021;51.182;3.160;2023-12-20T00:03:40;6.80;99.90
11922;DHT22;6021;51.182;3.160;2023-12-20T00:06:09;6.80;99.90
11922;DHT22;6021;51.182;3.160;2023-12-20T00:08:37;6.90;99.90
11922;DHT22;6021;51.182;3.160;2023-12-20T00:11:06;6.80;99.90
11922;DHT22;6021;51.182;3.160;2023-12-20T00:13:34;6.80;99.90
11922;DHT22;6021;51.182;3.160;2023-12-20T00:16:02;6.70;99.90
11922;DHT22;6021;51.182;3.160;2023-12-20T00:18:31;6.70;99.90
11922;DHT22;6021;51.182;3.160;2023-12-20T00:20:59;6.50;99.90
11922;DHT22;6021;51.182;3.160;2023-12-20T00:23:27;6.50;99.90
11922;DHT22;6021;51.182;3.160;2023-12-20T00:25:56;6.70;99.90
11922;DHT22;6021;51.182;3.160;2023-12-20T00:28:24;6.50;99.90
11922;DHT22;6021;51.182;3.160;2023-12-20T00:30:52;6.50;99.90
11922;DHT22;6021;51.182;3.160;2023-12-20T00:33:20;6.40;99.90
11922;DHT22;6021;51.182;3.160;2023-12-20T00:35:49;6.40;99.90
11922;DHT22;6021;51.182;3.160;2023-12-20T00:38:18;6.70;99.90
11922;DHT22;6021;51.182;3.160;2023-12-20T00:40:46;6.70;99.90
11922;DHT22;6021;51.182;3.160;2023-12-20T00:43:14;6.70;99.90
11922;DHT22;6021;51.182;3.160;2023-12-20T00:45:43;6.80;99.90
11922;DHT22;6021;51.182;3.160;2023-12-20T00:48:11;6.50;99.90
11922;DHT22;6021;51.182;3.160;2023-12-20T00:50:40;6.50;99.90
11922;DHT22;6021;51.182;3.160;2023-12-20T00:53:08;6.50;99.90
11922;DHT22;6021;51.182;3.160;2023-12-20T00:55:36;6.50;99.90
11922;DHT22;6021;51.182;3.160;2023-12-20T00:58:05;6.50;99.90
11922;DHT22;6021;51.182;3.160;2023-12-20T01:00:33;6.50;99.90
11922;DHT22;6021;51.182;3.160;2023-12-20T01:03:01;6.80;99.90
11922;DHT22;6021;51.182;3.160;2023-12-20T01:05:30;6.80;99.90
11922;DHT22;6021;51.182;3.160;2023-12-20T01:07:58;6.80;99.90
11922;DHT22;6021;51.182;3.160;2023-12-20T01:10:27;6.80;99.90
11922;DHT22;6021;51.182;3.160;2023-12-20T01:12:56;6.80;99.90
11922;DHT22;6021;51.182;3.160;2023-12-20T01:15:24;6.80;99.90
11922;DHT22;6021;51.182;3.160;2023-12-20T01:17:53;6.80;99.90
11922;DHT22;6021;51.182;3.160;2023-12-20T01:20:21;6.90;99.90
11922;DHT22;6021;51.182;3.160;2023-12-20T01:22:49;6.80;99.90
11922;DHT22;6021;51.182;3.160;2023-12-20T01:25:18;7.00;99.90
11922;DHT22;6021;51.182;3.160;2023-12-20T01:27:46;7.10;99.90
11922;DHT22;6021;51.182;3.160;2023-12-20T01:30:15;7.00;99.90
11922;DHT22;6021;51.182;3.160;2023-12-20T01:32:43;7.00;99.90
11922;DHT22;6021;51.182;3.160;2023-12-20T01:35:12;7.10;99.90
11922;DHT22;6021;51.182;3.160;2023-12-20T01:37:40;7.00;99.90
11922;DHT22;6021;51.182;3.160;2023-12-20T01:40:09;7.20;99.90
11922;DHT22;6021;51.182;3.160;2023-12-20T01:42:38;7.20;99.90
11922;DHT22;6021;51.182;3.160;2023-12-20T01:45:08;7.20;99.90
11922;DHT22;6021;51.182;3.160;2023-12-20T01:47:36;7.20;99.90
11922;DHT22;6021;51.182;3.160;2023-12-20T01:50:06;7.10;99.90
11922;DHT22;6021;51.182;3.160;2023-12-20T01:52:35;7.00;99.90
11922;DHT22;6021;51.182;3.160;2023-12-20T01:55:05;7.20;99.90
11922;DHT22;6021;51.182;3.160;2023-12-20T01:57:36;7.20;99.90
11922;DHT22;6021;51.182;3.160;2023-12-20T02:00:05;7.20;99.90
11922;DHT22;6021;51.182;3.160;2023-12-20T02:02:33;7.20;99.90
11922;DHT22;6021;51.182;3.160;2023-12-20T02:05:02;7.20;99.90
11922;DHT22;6021;51.182;3.160;2023-12-20T02:07:31;7.10;99.90
11922;DHT22;6021;51.182;3.160;2023-12-20T02:10:06;7.10;99.90
11922;DHT22;6021;51.182;3.160;2023-12-20T02:12:31;7.10;99.90
11922;DHT22;6021;51.182;3.160;2023-12-20T02:14:59;7.20;99.90
11922;DHT22;6021;51.182;3.160;2023-12-20T02:17:28;7.40;99.90
11922;DHT22;6021;51.182;3.160;2023-12-20T02:19:57;7.30;99.90
11922;DHT22;6021;51.182;3.160;2023-12-20T02:22:26;7.30;99.90
11922;DHT22;6021;51.182;3.160;2023-12-20T02:24:54;7.40;99.90
11922;DHT22;6021;51.182;3.160;2023-12-20T02:27:23;7.40;99.90
11922;DHT22;6021;51.182;3.160;2023-12-20T02:29:52;7.30;99.90
11922;DHT22;6021;51.182;3.160;2023-12-20T02:32:21;7.10;99.90
11922;DHT22;6021;51.182;3.160;2023-12-20T02:34:49;7.10;99.90
11922;DHT22;6021;51.182;3.160;2023-12-20T02:37:17;7.00;99.90
11922;DHT22;6021;51.182;3.160;2023-12-20T02:39:46;7.10;99.90
11922;DHT22;6021;51.182;3.160;2023-12-20T02:42:14;7.10;99.90
11922;DHT22;6021;51.182;3.160;2023-12-20T02:44:42;7.00;99.90
11922;DHT22;6021;51.182;3.160;2023-12-20T02:47:11;7.20;99.90
11922;DHT22;6021;51.182;3.160;2023-12-20T02:49:39;7.20;99.90
11922;DHT22;6021;51.182;3.160;2023-12-20T02:52:07;7.20;99.90
11922;DHT22;6021;51.182;3.160;2023-12-20T02:54:37;7.00;99.90
11922;DHT22;6021;51.182;3.160;2023-12-20T02:57:06;7.00;99.90
11922;DHT22;6021;51.182;3.160;2023-12-20T02:59:34;7.00;99.90
11922;DHT22;6021;51.182;3.160;2023-12-20T03:02:03;7.20;99.90
11922;DHT22;6021;51.182;3.160;2023-12-20T03:04:31;6.80;99.90
11922;DHT22;6021;51.182;3.160;2023-12-20T03:06:59;6.90;99.90
11922;DHT22;6021;51.182;3.160;2023-12-20T03:09:27;6.80;99.90
11922;DHT22;6021;51.182;3.160;2023-12-20T03:11:56;6.70;99.90
11922;DHT22;6021;51.182;3.160;2023-12-20T03:14:24;6.70;99.90
11922;DHT22;6021;51.182;3.160;2023-12-20T03:16:52;6.70;99.90
11922;DHT22;6021;51.182;3.160;2023-12-20T03:19:20;6.80;99.90
11922;DHT22;6021;51.182;3.160;2023-12-20T03:21:49;6.80;99.90
11922;DHT22;6021;51.182;3.160;2023-12-20T03:24:17;6.80;99.90
11922;DHT22;6021;51.182;3.160;2023-12-20T03:26:45;7.00;99.90
11922;DHT22;6021;51.182;3.160;2023-12-20T03:29:14;7.00;99.90
11922;DHT22;6021;51.182;3.160;2023-12-20T03:31:42;7.20;99.90
11922;DHT22;6021;51.182;3.160;2023-12-20T03:34:10;7.00;99.90
11922;DHT22;6021;51.182;3.160;2023-12-20T03:36:39;7.20;99.90
11922;DHT22;6021;51.182;3.160;2023-12-20T03:39:08;7.20;99.90
11922;DHT22;6021;51.182;3.160;2023-12-20T03:41:37;7.10;99.90
11922;DHT22;6021;51.182;3.160;2023-12-20T03:44:06;7.10;99.90
11922;DHT22;6021;51.182;3.160;2023-12-20T03:46:35;7.10;99.90
11922;DHT22;6021;51.182;3.160;2023-12-20T03:49:03;7.10;99.90
11922;DHT22;6021;51.182;3.160;2023-12-20T03:51:32;7.10;99.90
11922;DHT22;6021;51.182;3.160;2023-12-20T03:54:00;6.80;99.90
11922;DHT22;6021;51.182;3.160;2023-12-20T03:56:28;6.80;99.90
11922;DHT22;6021;51.182;3.160;2023-12-20T03:58:57;6.70;99.90
11922;DHT22;6021;51.182;3.160;2023-12-20T04:01:25;6.80;99.90
11922;DHT22;6021;51.182;3.160;2023-12-20T04:03:53;6.80;99.90
11922;DHT22;6021;51.182;3.160;2023-12-20T04:06:22;6.80;99.90
11922;DHT22;6021;51.182;3.160;2023-12-20T04:08:50;6.80;99.90
11922;DHT22;6021;51.182;3.160;2023-12-20T04:11:19;6.80;99.90
11922;DHT22;6021;51.182;3.160;2023-12-20T04:13:47;6.80;99.90
11922;DHT22;6021;51.182;3.160;2023-12-20T04:16:15;6.70;99.90
11922;DHT22;6021;51.182;3.160;2023-12-20T04:18:44;6.80;99.90
11922;DHT22;6021;51.182;3.160;2023-12-20T04:21:12;6.80;99.90
11922;DHT22;6021;51.182;3.160;2023-12-20T04:23:40;6.70;99.90
11922;DHT22;6021;51.182;3.160;2023-12-20T04:26:09;6.70;99.90
11922;DHT22;6021;51.182;3.160;2023-12-20T04:28:37;6.70;99.90
11922;DHT22;6021;51.182;3.160;2023-12-20T04:31:05;6.70;99.90
11922;DHT22;6021;51.182;3.160;2023-12-20T04:33:33;6.50;99.90
11922;DHT22;6021;51.182;3.160;2023-12-20T04:36:02;6.70;99.90
11922;DHT22;6021;51.182;3.160;2023-12-20T04:38:31;6.60;99.90
11922;DHT22;6021;51.182;3.160;2023-12-20T04:41:00;6.40;99.90
11922;DHT22;6021;51.182;3.160;2023-12-20T04:43:28;6.50;99.90
11922;DHT22;6021;51.182;3.160;2023-12-20T04:45:57;6.60;99.90
11922;DHT22;6021;51.182;3.160;2023-12-20T04:48:25;6.50;99.90
11922;DHT22;6021;51.182;3.160;2023-12-20T04:50:53;6.50;99.90
11922;DHT22;6021;51.182;3.160;2023-12-20T04:53:22;6.50;99.90
11922;DHT22;6021;51.182;3.160;2023-12-20T04:55:50;6.80;99.90
11922;DHT22;6021;51.182;3.160;2023-12-20T04:58:18;6.80;99.90
11922;DHT22;6021;51.182;3.160;2023-12-20T05:00:47;6.70;99.90
11922;DHT22;6021;51.182;3.160;2023-12-20T05:03:15;6.80;99.90
11922;DHT22;6021;51.182;3.160;2023-12-20T05:05:43;6.70;99.90
11922;DHT22;6021;51.182;3.160;2023-12-20T05:08:12;6.80;99.90
11922;DHT22;6021;51.182;3.160;2023-12-20T05:10:40;6.80;99.90
11922;DHT22;6021;51.182;3.160;2023-12-20T05:13:09;7.00;99.90
11922;DHT22;6021;51.182;3.160;2023-12-20T05:15:37;7.20;99.90
11922;DHT22;6021;51.182;3.160;2023-12-20T05:18:06;7.20;99.90
11922;DHT22;6021;51.182;3.160;2023-12-20T05:20:34;7.20;99.90
11922;DHT22;6021;51.182;3.160;2023-12-20T05:23:03;7.00;99.90
11922;DHT22;6021;51.182;3.160;2023-12-20T05:25:31;7.20;99.90
11922;DHT22;6021;51.182;3.160;2023-12-20T05:27:59;7.00;99.90
11922;DHT22;6021;51.182;3.160;2023-12-20T05:30:27;7.00;99.90
11922;DHT22;6021;51.182;3.160;2023-12-20T05:32:56;6.80;99.90
11922;DHT22;6021;51.182;3.160;2023-12-20T05:35:24;6.80;99.90
11922;DHT22;6021;51.182;3.160;2023-12-20T05:37:52;6.70;99.90
11922;DHT22;6021;51.182;3.160;2023-12-20T05:40:21;6.80;99.90
11922;DHT22;6021;51.182;3.160;2023-12-20T05:42:49;6.80;99.90
11922;DHT22;6021;51.182;3.160;2023-12-20T05:45:17;6.80;99.90
11922;DHT22;6021;51.182;3.160;2023-12-20T05:47:45;6.80;99.90
11922;DHT22;6021;51.182;3.160;2023-12-20T05:50:14;6.80;99.90
11922;DHT22;6021;51.182;3.160;2023-12-20T05:52:42;6.70;99.90
11922;DHT22;6021;51.182;3.160;2023-12-20T05:55:11;6.70;99.90
11922;DHT22;6021;51.182;3.160;2023-12-20T05:57:39;6.70;99.90
11922;DHT22;6021;51.182;3.160;2023-12-20T06:00:08;6.50;99.90
11922;DHT22;6021;51.182;3.160;2023-12-20T06:02:37;6.60;99.90
11922;DHT22;6021;51.182;3.160;2023-12-20T06:05:05;6.50;99.90
11922;DHT22;6021;51.182;3.160;2023-12-20T06:07:34;6.60;99.90
11922;DHT22;6021;51.182;3.160;2023-12-20T06:10:02;6.40;99.90
11922;DHT22;6021;51.182;3.160;2023-12-20T06:12:30;6.70;99.90
11922;DHT22;6021;51.182;3.160;2023-12-20T06:15:00;6.50;99.90
11922;DHT22;6021;51.182;3.160;2023-12-20T06:17:29;6.70;99.90
11922;DHT22;6021;51.182;3.160;2023-12-20T06:19:58;6.70;99.90
11922;DHT22;6021;51.182;3.160;2023-12-20T06:22:27;6.70;99.90
11922;DHT22;6021;51.182;3.160;2023-12-20T06:24:55;6.50;99.90
11922;DHT22;6021;51.182;3.160;2023-12-20T06:27:23;6.50;99.90
11922;DHT22;6021;51.182;3.160;2023-12-20T06:29:51;6.60;99.90
11922;DHT22;6021;51.182;3.160;2023-12-20T06:32:20;6.90;99.90
11922;DHT22;6021;51.182;3.160;2023-12-20T06:34:50;6.70;99.90
11922;DHT22;6021;51.182;3.160;2023-12-20T06:37:22;6.70;99.90
11922;DHT22;6021;51.182;3.160;2023-12-20T06:39:51;6.60;99.90
11922;DHT22;6021;51.182;3.160;2023-12-20T06:42:19;6.70;99.90
11922;DHT22;6021;51.182;3.160;2023-12-20T06:44:48;6.50;99.90
11922;DHT22;6021;51.182;3.160;2023-12-20T06:47:16;6.50;99.90
11922;DHT22;6021;51.182;3.160;2023-12-20T06:49:44;6.80;99.90
11922;DHT22;6021;51.182;3.160;2023-12-20T06:52:13;6.70;99.90
11922;DHT22;6021;51.182;3.160;2023-12-20T06:54:41;6.50;99.90
11922;DHT22;6021;51.182;3.160;2023-12-20T06:57:09;6.60;99.90
11922;DHT22;6021;51.182;3.160;2023-12-20T06:59:41;6.40;99.90
11922;DHT22;6021;51.182;3.160;2023-12-20T07:02:09;6.70;99.90
11922;DHT22;6021;51.182;3.160;2023-12-20T07:04:41;6.70;99.90
11922;DHT22;6021;51.182;3.160;2023-12-20T07:07:09;6.70;99.90
11922;DHT22;6021;51.182;3.160;2023-12-20T07:09:37;6.60;99.90
11922;DHT22;6021;51.182;3.160;2023-12-20T07:12:06;6.50;99.90
11922;DHT22;6021;51.182;3.160;2023-12-20T07:14:34;6.60;99.90
11922;DHT22;6021;51.182;3.160;2023-12-20T07:17:03;6.40;99.90
11922;DHT22;6021;51.182;3.160;2023-12-20T07:19:31;6.70;99.90
11922;DHT22;6021;51.182;3.160;2023-12-20T07:21:59;6.50;99.90
11922;DHT22;6021;51.182;3.160;2023-12-20T07:24:28;6.50;99.90
11922;DHT22;6021;51.182;3.160;2023-12-20T07:26:56;6.60;99.90
11922;DHT22;6021;51.182;3.160;2023-12-20T07:29:24;6.50;99.90
11922;DHT22;6021;51.182;3.160;2023-12-20T07:31:53;6.80;99.90
11922;DHT22;6021;51.182;3.160;2023-12-20T07:34:21;6.60;99.90
11922;DHT22;6021;51.182;3.160;2023-12-20T07:36:50;6.40;99.90
11922;DHT22;6021;51.182;3.160;2023-12-20T07:39:18;6.40;99.90
11922;DHT22;6021;51.182;3.160;2023-12-20T07:41:47;6.20;99.90
11922;DHT22;6021;51.182;3.160;2023-12-20T07:44:15;6.40;99.90
11922;DHT22;6021;51.182;3.160;2023-12-20T07:46:43;6.50;99.90
11922;DHT22;6021;51.182;3.160;2023-12-20T07:49:12;6.50;99.90
11922;DHT22;6021;51.182;3.160;2023-12-20T07:51:40;6.70;99.90
11922;DHT22;6021;51.182;3.160;2023-12-20T07:54:08;6.70;99.90
11922;DHT22;6021;51.182;3.160;2023-12-20T07:56:36;6.80;99.90
11922;DHT22;6021;51.182;3.160;2023-12-20T07:59:08;6.80;99.90
11922;DHT22;6021;51.182;3.160;2023-12-20T08:01:36;6.90;99.90
11922;DHT22;6021;51.182;3.160;2023-12-20T08:04:04;6.80;99.90
11922;DHT22;6021;51.182;3.160;2023-12-20T08:06:33;6.80;99.90
11922;DHT22;6021;51.182;3.160;2023-12-20T08:09:01;7.00;99.90
11922;DHT22;6021;51.182;3.160;2023-12-20T08:11:29;7.00;99.90
11922;DHT22;6021;51.182;3.160;2023-12-20T08:13:58;7.00;99.90
11922;DHT22;6021;51.182;3.160;2023-12-20T08:16:26;7.30;99.90
11922;DHT22;6021;51.182;3.160;2023-12-20T08:18:54;7.10;99.90
11922;DHT22;6021;51.182;3.160;2023-12-20T08:21:23;7.40;99.90
11922;DHT22;6021;51.182;3.160;2023-12-20T08:23:51;7.40;99.90
11922;DHT22;6021;51.182;3.160;2023-12-20T08:26:20;7.50;99.90
11922;DHT22;6021;51.182;3.160;2023-12-20T08:28:50;7.50;99.90
11922;DHT22;6021;51.182;3.160;2023-12-20T08:31:19;7.90;99.90
11922;DHT22;6021;51.182;3.160;2023-12-20T08:33:48;7.70;99.90
11922;DHT22;6021;51.182;3.160;2023-12-20T08:36:17;7.70;96.70
11922;DHT22;6021;51.182;3.160;2023-12-20T08:38:45;7.80;93.30
11922;DHT22;6021;51.182;3.160;2023-12-20T08:41:14;7.80;92.60
11922;DHT22;6021;51.182;3.160;2023-12-20T08:43:42;7.90;84.80
11922;DHT22;6021;51.182;3.160;2023-12-20T08:46:10;7.90;75.10
11922;DHT22;6021;51.182;3.160;2023-12-20T08:48:39;8.20;61.30
11922;DHT22;6021;51.182;3.160;2023-12-20T08:51:07;8.00;36.10
11922;DHT22;6021;51.182;3.160;2023-12-20T08:53:36;8.00;26.30
11922;DHT22;6021;51.182;3.160;2023-12-20T08:56:05;7.70;21.60
11922;DHT22;6021;51.182;3.160;2023-12-20T08:58:34;8.10;28.90
11922;DHT22;6021;51.182;3.160;2023-12-20T09:01:03;7.90;32.30
11922;DHT22;6021;51.182;3.160;2023-12-20T09:03:31;7.70;38.50
11922;DHT22;6021;51.182;3.160;2023-12-20T09:06:00;7.90;47.60
11922;DHT22;6021;51.182;3.160;2023-12-20T09:08:28;7.90;43.00
11922;DHT22;6021;51.182;3.160;2023-12-20T09:10:57;7.70;42.10
11922;DHT22;6021;51.182;3.160;2023-12-20T09:13:25;7.80;39.60
11922;DHT22;6021;51.182;3.160;2023-12-20T09:15:56;7.80;36.90
11922;DHT22;6021;51.182;3.160;2023-12-20T09:18:25;7.90;35.40
11922;DHT22;6021;51.182;3.160;2023-12-20T09:20:53;7.90;47.40
11922;DHT22;6021;51.182;3.160;2023-12-20T09:23:21;8.20;63.00
11922;DHT22;6021;51.182;3.160;2023-12-20T09:25:50;7.70;54.30
11922;DHT22;6021;51.182;3.160;2023-12-20T09:28:18;8.10;42.90
11922;DHT22;6021;51.182;3.160;2023-12-20T09:30:46;7.90;42.60
11922;DHT22;6021;51.182;3.160;2023-12-20T09:33:15;8.10;43.40
11922;DHT22;6021;51.182;3.160;2023-12-20T09:35:43;7.70;49.40
11922;DHT22;6021;51.182;3.160;2023-12-20T09:38:12;8.20;43.40
11922;DHT22;6021;51.182;3.160;2023-12-20T09:40:42;8.10;35.60
11922;DHT22;6021;51.182;3.160;2023-12-20T09:43:15;8.10;49.30
11922;DHT22;6021;51.182;3.160;2023-12-20T09:45:45;8.10;49.90
11922;DHT22;6021;51.182;3.160;2023-12-20T09:48:17;8.20;52.00
11922;DHT22;6021;51.182;3.160;2023-12-20T09:50:47;8.00;60.80
11922;DHT22;6021;51.182;3.160;2023-12-20T09:53:16;7.90;52.60
11922;DHT22;6021;51.182;3.160;2023-12-20T09:55:45;8.30;54.30
11922;DHT22;6021;51.182;3.160;2023-12-20T09:58:14;8.50;42.70
11922;DHT22;6021;51.182;3.160;2023-12-20T10:00:42;8.40;36.80
11922;DHT22;6021;51.182;3.160;2023-12-20T10:03:11;8.50;29.30
11922;DHT22;6021;51.182;3.160;2023-12-20T10:05:42;8.50;25.30
11922;DHT22;6021;51.182;3.160;2023-12-20T10:08:11;8.20;25.70
11922;DHT22;6021;51.182;3.160;2023-12-20T10:10:39;8.50;32.30
11922;DHT22;6021;51.182;3.160;2023-12-20T10:13:09;8.80;15.90
11922;DHT22;6021;51.182;3.160;2023-12-20T10:15:38;8.40;10.70
11922;DHT22;6021;51.182;3.160;2023-12-20T10:18:08;8.70;2.30
11922;DHT22;6021;51.182;3.160;2023-12-20T10:20:36;8.80;1.00
11922;DHT22;6021;51.182;3.160;2023-12-20T10:23:04;8.50;1.00
11922;DHT22;6021;51.182;3.160;2023-12-20T10:25:33;8.80;1.00
11922;DHT22;6021;51.182;3.160;2023-12-20T10:28:14;8.80;4.90
11922;DHT22;6021;51.182;3.160;2023-12-20T10:30:44;8.80;2.30
11922;DHT22;6021;51.182;3.160;2023-12-20T10:33:13;8.80;1.00
11922;DHT22;6021;51.182;3.160;2023-12-20T10:35:41;8.60;18.40
11922;DHT22;6021;51.182;3.160;2023-12-20T10:38:10;9.00;16.40
11922;DHT22;6021;51.182;3.160;2023-12-20T10:40:40;9.10;1.00
11922;DHT22;6021;51.182;3.160;2023-12-20T10:43:10;9.10;1.00
11922;DHT22;6021;51.182;3.160;2023-12-20T10:45:39;9.10;1.00
11922;DHT22;6021;51.182;3.160;2023-12-20T10:48:10;9.10;1.00
11922;DHT22;6021;51.182;3.160;2023-12-20T10:50:42;9.00;1.00
11922;DHT22;6021;51.182;3.160;2023-12-20T10:53:11;9.00;1.00
11922;DHT22;6021;51.182;3.160;2023-12-20T10:55:40;9.10;1.00
11922;DHT22;6021;51.182;3.160;2023-12-20T10:58:09;9.10;1.00
11922;DHT22;6021;51.182;3.160;2023-12-20T11:00:40;9.10;1.00
11922;DHT22;6021;51.182;3.160;2023-12-20T11:03:09;9.30;1.00
11922;DHT22;6021;51.182;3.160;2023-12-20T11:05:44;9.30;1.00
11922;DHT22;6021;51.182;3.160;2023-12-20T11:11:06;9.40;1.00
11922;DHT22;6021;51.182;3.160;2023-12-20T11:13:47;9.50;1.00
11922;DHT22;6021;51.182;3.160;2023-12-20T11:16:11;9.30;1.00
11922;DHT22;6021;51.182;3.160;2023-12-20T11:18:41;9.20;1.00
11922;DHT22;6021;51.182;3.160;2023-12-20T11:21:11;9.40;1.00
11922;DHT22;6021;51.182;3.160;2023-12-20T11:23:42;9.40;1.00
11922;DHT22;6021;51.182;3.160;2023-12-20T11:26:11;9.30;1.00
11922;DHT22;6021;51.182;3.160;2023-12-20T11:28:39;9.50;1.00
11922;DHT22;6021;51.182;3.160;2023-12-20T11:31:07;9.40;1.00
11922;DHT22;6021;51.182;3.160;2023-12-20T11:33:38;9.70;1.00
11922;DHT22;6021;51.182;3.160;2023-12-20T11:36:14;9.50;1.00
11922;DHT22;6021;51.182;3.160;2023-12-20T11:38:58;9.60;1.00
11922;DHT22;6021;51.182;3.160;2023-12-20T11:41:27;9.50;1.00
11922;DHT22;6021;51.182;3.160;2023-12-20T11:43:56;9.70;1.00
11922;DHT22;6021;51.182;3.160;2023-12-20T11:46:24;9.70;1.00
11922;DHT22;6021;51.182;3.160;2023-12-20T11:48:54;9.70;1.00
11922;DHT22;6021;51.182;3.160;2023-12-20T11:51:22;9.70;1.00
11922;DHT22;6021;51.182;3.160;2023-12-20T11:53:53;9.90;1.00
11922;DHT22;6021;51.182;3.160;2023-12-20T11:56:22;10.00;1.00
11922;DHT22;6021;51.182;3.160;2023-12-20T11:58:50;9.90;1.00
11922;DHT22;6021;51.182;3.160;2023-12-20T12:01:20;10.00;1.00
11922;DHT22;6021;51.182;3.160;2023-12-20T12:03:48;10.10;1.00
11922;DHT22;6021;51.182;3.160;2023-12-20T12:06:16;10.00;1.00
11922;DHT22;6021;51.182;3.160;2023-12-20T12:08:45;9.60;1.00
11922;DHT22;6021;51.182;3.160;2023-12-20T12:11:13;9.70;1.00
11922;DHT22;6021;51.182;3.160;2023-12-20T12:13:41;9.70;1.00
11922;DHT22;6021;51.182;3.160;2023-12-20T12:16:10;9.60;1.00
11922;DHT22;6021;51.182;3.160;2023-12-20T12:18:39;9.70;1.00
11922;DHT22;6021;51.182;3.160;2023-12-20T12:21:09;9.70;1.00
11922;DHT22;6021;51.182;3.160;2023-12-20T12:23:37;9.70;1.00
11922;DHT22;6021;51.182;3.160;2023-12-20T12:26:06;9.70;1.00
11922;DHT22;6021;51.182;3.160;2023-12-20T12:28:36;9.70;1.00
11922;DHT22;6021;51.182;3.160;2023-12-20T12:31:05;9.80;1.00
11922;DHT22;6021;51.182;3.160;2023-12-20T12:33:33;9.90;1.00
11922;DHT22;6021;51.182;3.160;2023-12-20T12:36:02;10.10;1.00
11922;DHT22;6021;51.182;3.160;2023-12-20T12:38:33;10.30;1.00
11922;DHT22;6021;51.182;3.160;2023-12-20T12:41:01;10.20;1.00
11922;DHT22;6021;51.182;3.160;2023-12-20T12:43:30;10.20;1.00
11922;DHT22;6021;51.182;3.160;2023-12-20T12:45:58;10.20;1.00
11922;DHT22;6021;51.182;3.160;2023-12-20T12:48:26;10.40;1.00
11922;DHT22;6021;51.182;3.160;2023-12-20T12:50:55;10.30;1.00
11922;DHT22;6021;51.182;3.160;2023-12-20T12:53:26;10.10;1.00
11922;DHT22;6021;51.182;3.160;2023-12-20T12:55:54;10.20;1.00
11922;DHT22;6021;51.182;3.160;2023-12-20T12:58:22;10.20;1.00
11922;DHT22;6021;51.182;3.160;2023-12-20T13:00:52;10.10;1.00
11922;DHT22;6021;51.182;3.160;2023-12-20T13:03:21;10.10;1.00
11922;DHT22;6021;51.182;3.160;2023-12-20T13:05:49;10.30;1.00
11922;DHT22;6021;51.182;3.160;2023-12-20T13:08:18;10.10;1.00
11922;DHT22;6021;51.182;3.160;2023-12-20T13:10:46;10.30;1.00
11922;DHT22;6021;51.182;3.160;2023-12-20T13:13:14;10.30;1.00
11922;DHT22;6021;51.182;3.160;2023-12-20T13:15:43;10.30;1.00
11922;DHT22;6021;51.182;3.160;2023-12-20T13:18:13;10.20;1.00
11922;DHT22;6021;51.182;3.160;2023-12-20T13:20:41;10.20;1.00
11922;DHT22;6021;51.182;3.160;2023-12-20T13:23:09;10.20;1.00
11922;DHT22;6021;51.182;3.160;2023-12-20T13:25:38;10.20;1.00
11922;DHT22;6021;51.182;3.160;2023-12-20T13:28:06;10.20;1.00
11922;DHT22;6021;51.182;3.160;2023-12-20T13:30:35;10.30;1.00
11922;DHT22;6021;51.182;3.160;2023-12-20T13:33:04;10.00;1.00
11922;DHT22;6021;51.182;3.160;2023-12-20T13:35:33;10.20;1.00
11922;DHT22;6021;51.182;3.160;2023-12-20T13:38:02;10.20;1.00
11922;DHT22;6021;51.182;3.160;2023-12-20T13:40:32;10.20;1.00
11922;DHT22;6021;51.182;3.160;2023-12-20T13:43:00;10.30;1.00
11922;DHT22;6021;51.182;3.160;2023-12-20T13:45:31;10.10;1.00
11922;DHT22;6021;51.182;3.160;2023-12-20T13:47:59;10.10;1.00
11922;DHT22;6021;51.182;3.160;2023-12-20T13:50:27;10.10;1.00
11922;DHT22;6021;51.182;3.160;2023-12-20T13:52:56;10.10;1.00
11922;DHT22;6021;51.182;3.160;2023-12-20T13:55:24;10.10;1.00
11922;DHT22;6021;51.182;3.160;2023-12-20T13:57:54;10.10;1.00
11922;DHT22;6021;51.182;3.160;2023-12-20T14:00:23;10.10;1.00
11922;DHT22;6021;51.182;3.160;2023-12-20T14:02:51;10.00;1.00
11922;DHT22;6021;51.182;3.160;2023-12-20T14:05:20;10.10;1.00
11922;DHT22;6021;51.182;3.160;2023-12-20T14:07:50;9.80;1.00
11922;DHT22;6021;51.182;3.160;2023-12-20T14:10:18;9.90;1.00
11922;DHT22;6021;51.182;3.160;2023-12-20T14:12:46;10.00;1.00
11922;DHT22;6021;51.182;3.160;2023-12-20T14:15:14;10.00;1.00
11922;DHT22;6021;51.182;3.160;2023-12-20T14:17:43;10.00;1.00
11922;DHT22;6021;51.182;3.160;2023-12-20T14:20:11;10.10;1.00
11922;DHT22;6021;51.182;3.160;2023-12-20T14:22:40;10.00;1.00
11922;DHT22;6021;51.182;3.160;2023-12-20T14:25:12;10.10;1.00
11922;DHT22;6021;51.182;3.160;2023-12-20T14:27:41;10.00;1.00
11922;DHT22;6021;51.182;3.160;2023-12-20T14:30:12;9.90;1.00
11922;DHT22;6021;51.182;3.160;2023-12-20T14:32:41;9.80;1.00
11922;DHT22;6021;51.182;3.160;2023-12-20T14:35:10;10.00;1.00
11922;DHT22;6021;51.182;3.160;2023-12-20T14:37:38;9.80;1.00
11922;DHT22;6021;51.182;3.160;2023-12-20T14:40:08;9.80;1.00
11922;DHT22;6021;51.182;3.160;2023-12-20T14:42:38;9.90;1.00
11922;DHT22;6021;51.182;3.160;2023-12-20T14:45:06;9.80;1.00
11922;DHT22;6021;51.182;3.160;2023-12-20T14:47:35;10.00;1.00
11922;DHT22;6021;51.182;3.160;2023-12-20T14:50:04;9.70;1.00
11922;DHT22;6021;51.182;3.160;2023-12-20T14:52:33;9.70;1.00
11922;DHT22;6021;51.182;3.160;2023-12-20T14:55:03;9.90;1.00
11922;DHT22;6021;51.182;3.160;2023-12-20T14:57:32;9.80;1.00
11922;DHT22;6021;51.182;3.160;2023-12-20T15:00:00;10.00;1.00
11922;DHT22;6021;51.182;3.160;2023-12-20T15:02:29;9.90;1.00
11922;DHT22;6021;51.182;3.160;2023-12-20T15:04:58;10.10;1.00
11922;DHT22;6021;51.182;3.160;2023-12-20T15:07:27;10.00;1.00
11922;DHT22;6021;51.182;3.160;2023-12-20T15:09:55;9.90;1.00
11922;DHT22;6021;51.182;3.160;2023-12-20T15:12:24;9.80;1.00
11922;DHT22;6021;51.182;3.160;2023-12-20T15:14:52;9.80;1.00
11922;DHT22;6021;51.182;3.160;2023-12-20T15:17:20;9.70;1.00
11922;DHT22;6021;51.182;3.160;2023-12-20T15:19:48;9.80;1.00
11922;DHT22;6021;51.182;3.160;2023-12-20T15:22:17;9.70;1.00
11922;DHT22;6021;51.182;3.160;2023-12-20T15:24:45;9.90;1.00
11922;DHT22;6021;51.182;3.160;2023-12-20T15:27:14;9.80;1.00
11922;DHT22;6021;51.182;3.160;2023-12-20T15:29:43;9.80;1.00
11922;DHT22;6021;51.182;3.160;2023-12-20T15:32:11;9.70;1.00
11922;DHT22;6021;51.182;3.160;2023-12-20T15:34:40;9.90;1.00
11922;DHT22;6021;51.182;3.160;2023-12-20T15:37:08;9.80;1.00
11922;DHT22;6021;51.182;3.160;2023-12-20T15:39:36;9.80;1.00
11922;DHT22;6021;51.182;3.160;2023-12-20T15:42:05;9.70;1.00
11922;DHT22;6021;51.182;3.160;2023-12-20T15:44:35;9.70;1.00
11922;DHT22;6021;51.182;3.160;2023-12-20T15:47:04;10.00;1.00
11922;DHT22;6021;51.182;3.160;2023-12-20T15:49:32;9.90;1.00
11922;DHT22;6021;51.182;3.160;2023-12-20T15:52:00;9.80;1.00
11922;DHT22;6021;51.182;3.160;2023-12-20T15:54:29;10.00;1.00
11922;DHT22;6021;51.182;3.160;2023-12-20T15:56:57;9.80;1.00
11922;DHT22;6021;51.182;3.160;2023-12-20T15:59:25;9.90;1.00
11922;DHT22;6021;51.182;3.160;2023-12-20T16:01:54;9.80;1.00
11922;DHT22;6021;51.182;3.160;2023-12-20T16:04:22;10.00;1.00
11922;DHT22;6021;51.182;3.160;2023-12-20T16:06:50;9.60;1.00
11922;DHT22;6021;51.182;3.160;2023-12-20T16:09:19;9.70;1.00
11922;DHT22;6021;51.182;3.160;2023-12-20T16:11:47;9.70;1.00
11922;DHT22;6021;51.182;3.160;2023-12-20T16:14:17;9.90;7.30
11922;DHT22;6021;51.182;3.160;2023-12-20T16:16:47;9.80;16.60